createdAt,value
2018-03-26T00:02:26.624Z,7.83
2018-03-26T00:05:30.532Z,7.90
2018-03-26T00:08:33.697Z,7.90
2018-03-26T00:11:36.872Z,7.87
2018-03-26T00:14:40.779Z,8.00
2018-03-26T00:17:44.707Z,7.37
2018-03-26T00:20:47.836Z,7.43
2018-03-26T00:23:51.769Z,7.90
2018-03-26T00:26:55.379Z,7.97
2018-03-26T00:29:59.305Z,7.73
2018-03-26T00:33:03.349Z,7.37
2018-03-26T00:36:06.483Z,7.30
2018-03-26T00:39:09.650Z,7.47
2018-03-26T00:42:13.584Z,7.20
2018-03-26T00:45:17.485Z,7.17
2018-03-26T00:48:20.683Z,6.27
2018-03-26T00:51:23.816Z,6.83
2018-03-26T00:54:27.746Z,6.77
2018-03-26T00:57:31.700Z,6.87
2018-03-26T01:00:34.840Z,6.53
2018-03-26T01:03:38.034Z,6.53
2018-03-26T01:06:41.188Z,7.07
2018-03-26T01:09:44.352Z,6.83
2018-03-26T01:12:47.525Z,6.63
2018-03-26T01:15:51.419Z,6.67
2018-03-26T01:18:54.693Z,6.47
2018-03-26T01:21:57.843Z,6.53
2018-03-26T01:25:01.040Z,6.00
2018-03-26T01:28:04.812Z,6.00
2018-03-26T01:31:07.991Z,6.03
2018-03-26T01:34:11.262Z,6.00
2018-03-26T01:37:14.393Z,6.33
2018-03-26T01:40:17.574Z,6.23
2018-03-26T01:43:20.770Z,5.63
2018-03-26T01:46:23.895Z,5.73
2018-03-26T01:49:27.081Z,5.50
2018-03-26T01:52:30.225Z,6.27
2018-03-26T01:55:33.491Z,5.27
2018-03-26T01:58:36.680Z,5.80
2018-03-26T02:01:39.829Z,5.40
2018-03-26T02:04:43.003Z,5.40
2018-03-26T02:07:46.899Z,5.57
2018-03-26T02:10:50.074Z,5.27
2018-03-26T02:13:53.253Z,5.53
2018-03-26T02:16:57.175Z,5.73
2018-03-26T02:20:01.106Z,5.30
2018-03-26T02:23:05.043Z,5.27
2018-03-26T02:26:09.080Z,5.40
2018-03-26T02:29:12.242Z,5.00
2018-03-26T02:32:15.372Z,5.20
2018-03-26T02:35:18.528Z,5.40
2018-03-26T02:38:21.693Z,5.17
2018-03-26T02:41:25.625Z,5.03
2018-03-26T02:44:29.595Z,5.30
2018-03-26T02:47:32.722Z,5.20
2018-03-26T02:50:35.898Z,4.93
2018-03-26T02:53:39.063Z,5.30
2018-03-26T02:56:42.225Z,5.30
2018-03-26T02:59:45.498Z,5.07
2018-03-26T03:02:49.418Z,4.93
2018-03-26T03:05:53.351Z,4.63
2018-03-26T03:08:56.501Z,5.03
2018-03-26T03:11:59.667Z,4.77
2018-03-26T03:15:03.581Z,4.63
2018-03-26T03:18:06.763Z,4.27
2018-03-26T03:21:09.930Z,4.30
2018-03-26T03:24:13.070Z,4.50
2018-03-26T03:27:16.470Z,4.40
2018-03-26T03:30:19.627Z,4.37
2018-03-26T03:33:22.793Z,4.33
2018-03-26T03:36:25.957Z,4.17
2018-03-26T03:39:29.856Z,4.20
2018-03-26T03:42:33.020Z,4.30
2018-03-26T03:45:36.181Z,4.00
2018-03-26T03:48:39.345Z,4.50
2018-03-26T03:51:42.508Z,4.30
2018-03-26T03:54:45.733Z,4.10
2018-03-26T03:57:49.674Z,4.30
2018-03-26T04:00:53.614Z,3.97
2018-03-26T04:03:56.753Z,4.13
2018-03-26T04:06:59.927Z,4.27
2018-03-26T04:10:03.069Z,4.17
2018-03-26T04:13:06.243Z,4.00
2018-03-26T04:16:09.633Z,3.90
2018-03-26T04:19:13.540Z,4.20
2018-03-26T04:22:16.707Z,3.57
2018-03-26T04:25:19.835Z,3.70
2018-03-26T04:28:23.038Z,3.73
2018-03-26T04:31:26.205Z,3.57
2018-03-26T04:34:30.109Z,3.97
2018-03-26T04:37:33.308Z,3.50
2018-03-26T04:40:36.445Z,3.70
2018-03-26T04:43:40.366Z,3.30
2018-03-26T04:46:44.289Z,3.60
2018-03-26T04:49:48.209Z,3.50
2018-03-26T04:52:51.386Z,3.13
2018-03-26T04:55:54.578Z,3.00
2018-03-26T04:58:58.487Z,3.30
2018-03-26T05:02:01.660Z,3.10
2018-03-26T05:05:04.889Z,2.83
2018-03-26T05:08:08.110Z,3.40
2018-03-26T05:11:11.276Z,3.10
2018-03-26T05:14:14.446Z,3.37
2018-03-26T05:17:17.667Z,3.40
2018-03-26T05:20:20.846Z,263.03
2018-03-26T05:23:24.800Z,201.40
2018-03-26T05:26:27.949Z,147.13
2018-03-26T05:29:31.120Z,190.73
2018-03-26T05:32:34.296Z,236.57
2018-03-26T05:35:38.255Z,237.43
2018-03-26T05:38:41.437Z,241.53
2018-03-26T05:41:44.584Z,230.10
2018-03-26T05:44:47.756Z,223.03
2018-03-26T05:47:50.904Z,211.67
2018-03-26T05:50:54.094Z,213.00
2018-03-26T05:53:57.281Z,203.57
2018-03-26T05:57:01.202Z,201.83
2018-03-26T06:00:05.162Z,179.13
2018-03-26T06:03:08.325Z,155.30
2018-03-26T06:06:11.503Z,142.20
2018-03-26T06:09:14.675Z,144.20
2018-03-26T06:12:17.821Z,139.00
2018-03-26T06:15:20.991Z,152.10
2018-03-26T06:18:24.141Z,147.60
2018-03-26T06:21:27.317Z,147.77
2018-03-26T06:24:30.487Z,149.47
2018-03-26T06:27:33.643Z,155.40
2018-03-26T06:30:36.856Z,158.67
2018-03-26T06:33:40.038Z,157.40
2018-03-26T06:36:49.589Z,144.80
2018-03-26T06:39:53.527Z,79.90
2018-03-26T06:42:56.690Z,45.20
2018-03-26T06:45:59.869Z,29.27
2018-03-26T06:49:03.003Z,25.67
2018-03-26T06:52:18.155Z,16.10
2018-03-26T06:55:36.974Z,11.25
2018-03-26T06:58:40.203Z,9.77
2018-03-26T07:01:43.385Z,43.70
2018-03-26T07:04:46.530Z,35.53
2018-03-26T07:07:49.732Z,23.97
2018-03-26T07:10:52.909Z,12.87
2018-03-26T07:13:56.059Z,9.00
2018-03-26T07:16:59.274Z,7.27
2018-03-26T07:20:02.453Z,5.97
2018-03-26T07:23:05.612Z,5.37
2018-03-26T07:26:08.768Z,4.73
2018-03-26T07:29:11.901Z,4.43
2018-03-26T07:32:15.088Z,4.37
2018-03-26T07:35:18.224Z,4.30
2018-03-26T07:38:21.389Z,3.33
2018-03-26T07:41:24.606Z,10.70
2018-03-26T07:44:27.764Z,38.63
2018-03-26T07:47:30.960Z,58.77
2018-03-26T07:50:34.108Z,94.43
2018-03-26T07:53:38.036Z,67.03
2018-03-26T07:56:41.969Z,62.20
2018-03-26T07:59:45.876Z,54.03
2018-03-26T08:02:49.041Z,48.43
2018-03-26T08:05:52.262Z,43.87
2018-03-26T08:08:55.435Z,42.93
2018-03-26T08:11:59.383Z,39.67
2018-03-26T08:15:02.674Z,44.67
2018-03-26T08:18:05.837Z,40.30
2018-03-26T08:21:08.977Z,36.67
2018-03-26T08:24:12.913Z,34.43
2018-03-26T08:27:16.090Z,32.60
2018-03-26T08:30:19.233Z,30.87
2018-03-26T08:33:22.406Z,29.20
2018-03-26T08:36:26.348Z,26.30
2018-03-26T08:39:30.297Z,124.70
2018-03-26T08:42:33.473Z,190.50
2018-03-26T08:45:38.127Z,130.97
2018-03-26T08:48:42.076Z,81.93
2018-03-26T08:51:45.221Z,52.57
2018-03-26T08:54:48.387Z,49.40
2018-03-26T08:57:52.510Z,38.00
2018-03-26T09:00:56.418Z,26.80
2018-03-26T09:03:59.628Z,25.70
2018-03-26T09:07:02.769Z,19.37
2018-03-26T09:10:05.949Z,18.87
2018-03-26T09:13:09.120Z,18.67
2018-03-26T09:16:12.264Z,16.57
2018-03-26T09:19:15.427Z,15.63
2018-03-26T09:22:18.575Z,16.43
2018-03-26T09:25:21.746Z,17.07
2018-03-26T09:28:24.927Z,15.20
2018-03-26T09:31:28.842Z,15.10
2018-03-26T09:34:32.822Z,15.57
2018-03-26T09:37:35.983Z,15.23
2018-03-26T09:40:39.915Z,15.17
2018-03-26T09:43:43.853Z,14.70
2018-03-26T09:46:46.996Z,13.60
2018-03-26T09:49:50.169Z,13.83
2018-03-26T09:52:53.371Z,13.77
2018-03-26T09:55:56.571Z,13.17
2018-03-26T09:59:00.525Z,13.03
2018-03-26T10:02:03.693Z,13.20
2018-03-26T10:05:06.869Z,13.07
2018-03-26T10:08:10.045Z,13.43
2018-03-26T10:11:13.196Z,12.67
2018-03-26T10:14:16.364Z,13.30
2018-03-26T10:17:19.528Z,12.83
2018-03-26T10:20:23.590Z,12.63
2018-03-26T10:23:26.793Z,12.60
2018-03-26T10:26:29.936Z,12.50
2018-03-26T10:29:33.111Z,12.20
2018-03-26T10:32:36.415Z,12.47
2018-03-26T10:35:39.577Z,11.47
2018-03-26T10:38:42.711Z,12.27
2018-03-26T10:41:45.889Z,11.03
2018-03-26T10:44:49.115Z,11.23
2018-03-26T10:47:52.252Z,11.13
2018-03-26T10:50:56.223Z,10.20
2018-03-26T10:53:59.379Z,10.60
2018-03-26T10:57:03.327Z,11.03
2018-03-26T11:00:06.493Z,10.17
2018-03-26T11:03:09.651Z,10.37
2018-03-26T11:06:12.824Z,10.17
2018-03-26T11:09:16.747Z,10.23
2018-03-26T11:12:19.921Z,9.90
2018-03-26T11:15:23.204Z,10.53
2018-03-26T11:18:26.362Z,9.87
2018-03-26T11:21:29.825Z,9.83
2018-03-26T11:24:32.976Z,10.40
2018-03-26T11:27:36.146Z,9.90
2018-03-26T11:30:39.309Z,9.90
2018-03-26T11:33:42.445Z,9.10
2018-03-26T11:36:46.380Z,9.93
2018-03-26T11:39:49.532Z,9.67
2018-03-26T11:42:53.058Z,33.57
2018-03-26T11:45:56.394Z,91.97
2018-03-26T11:48:59.596Z,128.43
2018-03-26T11:52:03.545Z,135.67
2018-03-26T11:55:07.466Z,113.67
2018-03-26T11:58:11.409Z,95.63
2018-03-26T12:01:15.415Z,90.77
2018-03-26T12:04:18.537Z,91.37
2018-03-26T12:07:22.586Z,98.60
2018-03-26T12:10:25.814Z,100.47
2018-03-26T12:13:29.104Z,102.30
2018-03-26T12:16:32.290Z,96.73
2018-03-26T12:19:35.434Z,93.17
2018-03-26T12:22:38.642Z,89.23
2018-03-26T12:25:41.785Z,87.57
2018-03-26T12:28:56.958Z,81.40
2018-03-26T12:32:00.145Z,81.33
2018-03-26T12:35:15.212Z,76.77
2018-03-26T12:38:19.180Z,67.40
2018-03-26T12:41:22.360Z,64.80
2018-03-26T12:44:37.443Z,64.33
2018-03-26T12:47:40.613Z,61.10
2018-03-26T12:50:55.538Z,58.57
2018-03-26T12:53:59.527Z,57.00
2018-03-26T12:57:14.648Z,54.67
2018-03-26T13:00:18.554Z,51.57
2018-03-26T13:03:21.743Z,49.73
2018-03-26T13:06:24.936Z,48.00
2018-03-26T13:09:28.153Z,45.40
2018-03-26T13:12:31.328Z,45.17
2018-03-26T13:15:34.486Z,41.53
2018-03-26T13:18:37.649Z,42.83
2018-03-26T13:21:40.794Z,40.33
2018-03-26T13:24:43.977Z,38.47
2018-03-26T13:27:47.157Z,38.57
2018-03-26T13:30:51.105Z,39.97
2018-03-26T13:33:54.312Z,35.73
2018-03-26T13:36:57.534Z,35.43
2018-03-26T13:40:00.770Z,33.83
2018-03-26T13:43:03.941Z,32.93
2018-03-26T13:46:07.080Z,30.87
2018-03-26T13:49:10.262Z,33.13
2018-03-26T13:52:13.412Z,31.53
2018-03-26T13:55:16.598Z,29.90
2018-03-26T13:58:19.770Z,28.40
2018-03-26T14:01:23.703Z,27.37
2018-03-26T14:04:27.666Z,28.77
2018-03-26T14:07:30.816Z,31.30
2018-03-26T14:10:45.778Z,35.00
2018-03-26T14:14:00.597Z,40.50
2018-03-26T14:17:16.308Z,45.70
2018-03-26T14:20:20.241Z,48.17
2018-03-26T14:23:24.394Z,61.17
2018-03-26T14:26:27.588Z,121.60
2018-03-26T14:29:31.558Z,77.50
2018-03-26T14:32:34.704Z,42.23
2018-03-26T14:35:40.861Z,37.13
2018-03-26T14:38:44.006Z,38.43
2018-03-26T14:41:48.045Z,102.50
2018-03-26T14:44:51.192Z,67.10
2018-03-26T14:47:54.371Z,46.47
2018-03-26T14:50:57.727Z,40.63
2018-03-26T14:54:00.904Z,40.90
2018-03-26T14:57:04.077Z,36.87
2018-03-26T15:00:07.217Z,43.87
2018-03-26T15:03:10.452Z,36.53
2018-03-26T15:06:13.626Z,34.13
2018-03-26T15:09:17.544Z,33.50
2018-03-26T15:12:21.487Z,33.83
2018-03-26T15:15:24.716Z,31.77
2018-03-26T15:18:28.020Z,32.27
2018-03-26T15:21:31.197Z,29.93
2018-03-26T15:24:34.455Z,30.37
2018-03-26T15:27:37.637Z,29.83
2018-03-26T15:30:40.798Z,29.13
2018-03-26T15:33:43.964Z,28.43
2018-03-26T15:36:47.109Z,29.00
2018-03-26T15:39:50.276Z,27.17
2018-03-26T15:42:53.499Z,28.23
2018-03-26T15:45:56.657Z,28.73
2018-03-26T15:48:59.842Z,27.27
2018-03-26T15:52:02.988Z,27.57
2018-03-26T15:55:06.930Z,27.33
2018-03-26T15:58:10.096Z,26.40
2018-03-26T16:01:13.249Z,27.20
2018-03-26T16:04:16.435Z,25.50
2018-03-26T16:07:32.856Z,25.10
2018-03-26T16:10:36.038Z,25.20
2018-03-26T16:13:39.978Z,24.20
2018-03-26T16:16:43.116Z,24.33
2018-03-26T16:19:46.285Z,24.10
2018-03-26T16:22:49.434Z,24.13
2018-03-26T16:25:52.613Z,22.90
2018-03-26T16:28:55.866Z,22.70
2018-03-26T16:31:59.942Z,22.97
2018-03-26T16:35:03.899Z,22.37
2018-03-26T16:38:07.054Z,22.23
2018-03-26T16:41:10.253Z,22.17
2018-03-26T16:44:13.446Z,21.33
2018-03-26T16:47:16.601Z,21.03
2018-03-26T16:50:19.774Z,21.30
2018-03-26T16:53:22.925Z,21.07
2018-03-26T16:56:26.864Z,16.20
2018-03-26T16:59:30.042Z,11.90
2018-03-26T17:02:33.984Z,65.80
2018-03-26T17:05:37.165Z,56.43
2018-03-26T17:08:40.309Z,70.83
2018-03-26T17:11:43.485Z,88.30
2018-03-26T17:14:46.729Z,69.80
2018-03-26T17:17:50.668Z,64.67
2018-03-26T17:20:53.841Z,68.90
2018-03-26T17:23:56.981Z,63.53
2018-03-26T17:27:00.148Z,58.60
2018-03-26T17:30:03.297Z,53.43
2018-03-26T17:33:06.484Z,51.57
2018-03-26T17:36:10.443Z,48.40
2018-03-26T17:39:13.589Z,44.43
2018-03-26T17:42:16.771Z,43.83
2018-03-26T17:45:20.050Z,40.73
2018-03-26T17:48:24.100Z,38.77
2018-03-26T17:51:27.274Z,36.47
2018-03-26T17:54:31.207Z,35.07
2018-03-26T17:57:35.171Z,34.27
2018-03-26T18:00:38.778Z,32.77
2018-03-26T18:03:42.650Z,31.37
2018-03-26T18:06:45.903Z,29.73
2018-03-26T18:09:49.125Z,27.57
2018-03-26T18:12:52.337Z,28.33
2018-03-26T18:15:55.529Z,26.10
2018-03-26T18:18:59.584Z,24.17
2018-03-26T18:22:02.786Z,23.40
2018-03-26T18:25:06.710Z,23.13
2018-03-26T18:28:10.943Z,20.10
2018-03-26T18:31:14.153Z,20.10
2018-03-26T18:34:17.336Z,18.10
2018-03-26T18:37:21.255Z,17.77
2018-03-26T18:40:24.487Z,16.17
2018-03-26T18:43:28.449Z,14.53
2018-03-26T18:46:31.594Z,14.87
2018-03-26T18:49:34.789Z,14.90
2018-03-26T18:52:38.010Z,13.10
2018-03-26T18:55:41.177Z,13.13
2018-03-26T18:58:44.372Z,13.20
2018-03-26T19:01:47.515Z,11.80
2018-03-26T19:04:50.712Z,10.90
2018-03-26T19:07:53.857Z,10.40
2018-03-26T19:10:57.032Z,10.83
2018-03-26T19:14:00.228Z,9.53
2018-03-26T19:17:03.463Z,9.97
2018-03-26T19:20:07.161Z,8.80
2018-03-26T19:23:10.787Z,8.80
2018-03-26T19:26:13.981Z,8.50
2018-03-26T19:29:17.200Z,8.00
2018-03-26T19:32:20.366Z,8.03
2018-03-26T19:35:24.303Z,7.50
2018-03-26T19:38:28.366Z,6.83
2018-03-26T19:41:31.542Z,6.93
2018-03-26T19:44:35.824Z,6.03
2018-03-26T19:47:39.585Z,6.53
2018-03-26T19:50:44.082Z,6.03
2018-03-26T19:53:47.266Z,4.83
2018-03-26T19:56:50.471Z,5.53
2018-03-26T19:59:54.469Z,5.30
2018-03-26T20:02:57.654Z,4.90
2018-03-26T20:06:00.836Z,5.10
2018-03-26T20:09:04.155Z,4.43
2018-03-26T20:12:07.415Z,4.53
2018-03-26T20:15:10.703Z,4.13
2018-03-26T20:18:13.941Z,4.23
2018-03-26T20:21:17.261Z,3.83
2018-03-26T20:24:21.245Z,3.77
2018-03-26T20:27:24.457Z,3.50
2018-03-26T20:30:27.609Z,3.50
2018-03-26T20:33:31.594Z,3.27
2018-03-26T20:36:34.973Z,3.37
2018-03-26T20:39:38.150Z,3.37
2018-03-26T20:42:41.390Z,3.43
2018-03-26T20:45:45.356Z,3.60
2018-03-26T20:48:48.564Z,3.10
2018-03-26T20:51:51.741Z,2.93
2018-03-26T20:54:54.917Z,2.67
2018-03-26T20:57:58.089Z,3.20
2018-03-26T21:01:01.271Z,2.90
2018-03-26T21:04:04.497Z,2.97
2018-03-26T21:07:07.900Z,2.90
2018-03-26T21:10:11.075Z,2.63
2018-03-26T21:13:14.253Z,2.30
2018-03-26T21:16:17.441Z,2.77
2018-03-26T21:19:20.648Z,2.67
2018-03-26T21:22:23.863Z,2.47
2018-03-26T21:25:27.005Z,2.10
2018-03-26T21:28:30.191Z,2.67
2018-03-26T21:31:33.346Z,2.90
2018-03-26T21:34:37.398Z,2.30
2018-03-26T21:37:40.622Z,2.23
2018-03-26T21:40:43.813Z,2.27
2018-03-26T21:43:47.769Z,2.70
2018-03-26T21:46:51.074Z,2.40
2018-03-26T21:49:54.246Z,2.37
2018-03-26T21:52:57.492Z,2.00
2018-03-26T21:56:00.687Z,2.30
2018-03-26T21:59:04.109Z,2.13
2018-03-26T22:02:07.424Z,2.10
2018-03-26T22:05:10.645Z,1.87
2018-03-26T22:08:13.778Z,1.97
2018-03-26T22:11:16.937Z,1.97
2018-03-26T22:14:20.173Z,2.07
2018-03-26T22:17:23.394Z,2.10
2018-03-26T22:20:26.580Z,2.30
2018-03-26T22:23:29.814Z,6.37
2018-03-26T22:26:33.186Z,26.43
2018-03-26T22:29:36.390Z,42.83
2018-03-26T22:32:39.868Z,60.20
2018-03-26T22:35:43.935Z,69.00
2018-03-26T22:38:47.870Z,67.77
2018-03-26T22:41:51.115Z,72.03
2018-03-26T22:44:54.447Z,75.23
2018-03-26T22:47:57.612Z,76.80
2018-03-26T22:51:00.981Z,79.07
2018-03-26T22:54:04.570Z,88.30
2018-03-26T22:57:07.823Z,83.50
2018-03-26T23:00:11.693Z,82.93
2018-03-26T23:03:14.962Z,84.97
2018-03-26T23:06:18.227Z,87.30
2018-03-26T23:09:21.464Z,89.97
2018-03-26T23:12:24.695Z,96.67
2018-03-26T23:15:27.953Z,96.30
2018-03-26T23:18:31.206Z,94.70
2018-03-26T23:21:34.552Z,100.70
2018-03-26T23:24:37.780Z,93.17
2018-03-26T23:27:40.968Z,96.73
2018-03-26T23:30:44.917Z,93.63
2018-03-26T23:33:48.109Z,92.57
2018-03-26T23:36:52.154Z,89.63
2018-03-26T23:39:56.143Z,89.10
2018-03-26T23:42:59.324Z,87.43
2018-03-26T23:46:02.501Z,86.17
2018-03-26T23:49:06.538Z,83.30
2018-03-26T23:52:09.742Z,81.07
2018-03-26T23:55:12.907Z,85.83
2018-03-26T23:58:16.171Z,82.70
